createdAt,value
2022-11-15T00:01:17.508Z,10.90
2022-11-15T00:04:28.404Z,10.90
2022-11-15T00:07:54.477Z,10.93
2022-11-15T00:11:12.687Z,10.94
2022-11-15T00:14:32.378Z,10.95
2022-11-15T00:17:48.010Z,10.93
2022-11-15T00:21:00.971Z,10.94
2022-11-15T00:24:11.440Z,10.90
2022-11-15T00:27:18.745Z,10.96
2022-11-15T00:30:28.838Z,10.97
2022-11-15T00:33:37.572Z,11.03
2022-11-15T00:36:48.426Z,11.03
2022-11-15T00:40:00.690Z,11.14
2022-11-15T00:43:09.094Z,11.13
2022-11-15T00:46:17.425Z,11.08
2022-11-15T00:49:28.430Z,11.02
2022-11-15T00:52:38.455Z,11.01
2022-11-15T00:55:48.706Z,10.97
2022-11-15T00:58:57.265Z,10.92
2022-11-15T01:02:09.141Z,10.80
2022-11-15T01:05:29.241Z,10.65
2022-11-15T01:08:57.718Z,10.49
2022-11-15T01:12:26.629Z,10.29
2022-11-15T01:15:45.071Z,10.13
2022-11-15T01:18:55.144Z,9.94
2022-11-15T01:22:14.719Z,9.84
2022-11-15T01:25:25.168Z,9.76
2022-11-15T01:28:40.433Z,9.67
2022-11-15T01:31:59.002Z,9.60
2022-11-15T01:35:21.654Z,9.55
2022-11-15T01:42:04.859Z,9.25
2022-11-15T01:45:21.820Z,9.17
2022-11-15T01:48:38.597Z,9.08
2022-11-15T01:51:53.871Z,8.98
2022-11-15T01:55:12.975Z,8.95
2022-11-15T01:58:25.273Z,8.75
2022-11-15T02:01:37.793Z,8.68
2022-11-15T02:04:48.856Z,8.59
2022-11-15T02:07:56.377Z,8.58
2022-11-15T02:11:03.966Z,8.63
2022-11-15T02:14:16.150Z,8.66
2022-11-15T02:17:48.266Z,8.66
2022-11-15T02:21:15.608Z,8.77
2022-11-15T02:24:53.321Z,8.80
2022-11-15T02:28:34.508Z,8.79
2022-11-15T02:31:50.429Z,8.78
2022-11-15T02:35:07.165Z,8.79
2022-11-15T02:38:21.562Z,8.84
2022-11-15T02:41:32.231Z,8.90
2022-11-15T02:44:42.159Z,8.90
2022-11-15T02:47:54.801Z,8.88
2022-11-15T02:51:03.637Z,8.87
2022-11-15T02:54:11.469Z,8.89
2022-11-15T02:57:23.243Z,8.93
2022-11-15T03:00:31.677Z,8.94
2022-11-15T03:04:00.798Z,8.93
2022-11-15T03:07:15.958Z,8.90
2022-11-15T03:10:28.464Z,8.89
2022-11-15T03:13:45.711Z,8.94
2022-11-15T03:16:59.409Z,8.88
2022-11-15T03:20:10.733Z,8.84
2022-11-15T03:23:19.741Z,8.81
2022-11-15T03:26:26.980Z,8.75
2022-11-15T03:29:35.081Z,8.76
2022-11-15T03:32:40.782Z,8.72
2022-11-15T03:35:46.829Z,8.71
2022-11-15T03:38:50.283Z,8.69
2022-11-15T03:42:03.567Z,8.67
2022-11-15T03:45:15.179Z,8.71
2022-11-15T03:48:23.395Z,8.67
2022-11-15T03:51:27.727Z,8.60
2022-11-15T03:54:30.476Z,8.62
2022-11-15T03:57:33.461Z,8.70
2022-11-15T04:00:36.172Z,8.75
2022-11-15T04:03:38.779Z,8.80
2022-11-15T04:06:42.897Z,8.89
2022-11-15T04:10:11.283Z,8.92
2022-11-15T04:13:13.894Z,8.97
2022-11-15T04:16:16.540Z,9.03
2022-11-15T04:19:36.873Z,9.10
2022-11-15T04:22:58.594Z,9.13
2022-11-15T04:26:03.939Z,9.11
2022-11-15T04:29:24.124Z,9.07
2022-11-15T04:32:26.768Z,9.05
2022-11-15T04:35:30.082Z,9.08
2022-11-15T04:38:34.156Z,9.09
2022-11-15T04:41:37.045Z,9.11
2022-11-15T04:44:39.800Z,9.08
2022-11-15T04:47:45.296Z,9.09
2022-11-15T04:50:54.388Z,9.05
2022-11-15T04:53:58.547Z,9.05
2022-11-15T04:57:01.225Z,9.06
2022-11-15T05:00:05.356Z,9.01
2022-11-15T05:03:25.340Z,8.98
2022-11-15T05:06:27.979Z,8.96
2022-11-15T05:09:32.016Z,8.95
2022-11-15T05:12:34.698Z,8.93
2022-11-15T05:15:37.380Z,8.88
2022-11-15T05:18:41.649Z,8.79
2022-11-15T05:21:44.313Z,8.77
2022-11-15T05:24:48.342Z,8.72
2022-11-15T05:27:51.011Z,8.71
2022-11-15T05:30:53.647Z,8.64
2022-11-15T05:33:57.918Z,8.60
2022-11-15T05:37:01.258Z,8.56
2022-11-15T05:40:06.753Z,8.60
2022-11-15T05:43:09.848Z,8.63
2022-11-15T05:46:14.653Z,8.66
2022-11-15T05:49:21.723Z,8.70
2022-11-15T05:52:30.569Z,8.75
2022-11-15T05:55:34.852Z,8.79
2022-11-15T05:58:38.218Z,8.84
2022-11-15T06:01:41.904Z,8.89
2022-11-15T06:04:44.818Z,8.88
2022-11-15T06:07:47.508Z,8.90
2022-11-15T06:10:51.530Z,8.89
2022-11-15T06:13:54.241Z,8.87
2022-11-15T06:16:56.847Z,8.92
2022-11-15T06:19:59.443Z,9.01
2022-11-15T06:23:03.733Z,9.08
2022-11-15T06:26:07.865Z,9.14
2022-11-15T06:29:10.629Z,9.19
2022-11-15T06:32:13.376Z,9.24
2022-11-15T06:35:16.686Z,9.28
2022-11-15T06:38:19.435Z,9.32
2022-11-15T06:41:23.436Z,9.30
2022-11-15T06:44:26.121Z,9.31
2022-11-15T06:47:29.069Z,9.29
2022-11-15T06:50:31.841Z,9.32
2022-11-15T06:53:35.208Z,9.32
2022-11-15T06:56:39.410Z,9.38
2022-11-15T06:59:42.356Z,9.41
2022-11-15T07:02:45.289Z,9.50
2022-11-15T07:05:54.158Z,9.57
2022-11-15T07:08:56.797Z,9.65
2022-11-15T07:12:06.176Z,9.72
2022-11-15T07:15:11.582Z,9.80
2022-11-15T07:18:14.269Z,9.88
2022-11-15T07:21:16.949Z,9.95
2022-11-15T07:24:19.756Z,10.06
2022-11-15T07:27:23.927Z,10.15
2022-11-15T07:30:27.872Z,10.29
2022-11-15T07:33:30.890Z,10.44
2022-11-15T07:36:33.796Z,10.57
2022-11-15T07:39:36.575Z,10.71
2022-11-15T07:42:56.360Z,10.83
2022-11-15T07:45:59.845Z,10.98
2022-11-15T07:49:02.827Z,11.12
2022-11-15T07:52:05.804Z,11.23
2022-11-15T10:04:45.446Z,14.24
2022-11-15T10:07:56.758Z,14.13
2022-11-15T10:14:29.241Z,13.93
2022-11-15T10:18:06.119Z,13.89
2022-11-15T10:21:19.684Z,13.87
2022-11-15T10:24:29.021Z,13.87
2022-11-15T10:27:34.952Z,13.84
2022-11-15T10:30:41.215Z,13.87
2022-11-15T10:33:43.851Z,13.84
2022-11-15T10:36:50.347Z,13.86
2022-11-15T10:40:05.382Z,13.85
2022-11-15T10:43:17.678Z,13.86
2022-11-15T10:46:45.681Z,13.84
2022-11-15T10:49:56.368Z,13.83
2022-11-15T10:53:00.972Z,13.82
2022-11-15T10:56:09.924Z,13.83
2022-11-15T10:59:20.991Z,13.82
2022-11-15T11:02:34.642Z,13.81
2022-11-15T11:05:42.254Z,13.79
2022-11-15T11:09:02.472Z,13.77
2022-11-15T11:12:07.005Z,13.72
2022-11-15T11:15:13.990Z,13.67
2022-11-15T11:18:34.469Z,13.63
2022-11-15T11:21:47.496Z,13.65
2022-11-15T11:25:00.875Z,13.67
2022-11-15T11:28:21.673Z,13.70
2022-11-15T11:31:30.656Z,13.74
2022-11-15T11:34:49.159Z,13.78
2022-11-15T11:37:54.951Z,13.80
2022-11-15T11:41:05.823Z,13.86
2022-11-15T11:44:32.095Z,13.92
2022-11-15T11:47:41.196Z,14.00
2022-11-15T11:50:47.469Z,14.07
2022-11-15T11:53:57.348Z,14.09
2022-11-15T11:57:05.185Z,14.10
2022-11-15T12:00:40.018Z,14.11
2022-11-15T12:03:49.901Z,14.19
2022-11-15T12:06:58.923Z,14.30
2022-11-15T12:10:06.602Z,14.37
2022-11-15T12:13:17.577Z,14.46
2022-11-15T12:16:36.109Z,14.43
2022-11-15T12:19:39.046Z,14.38
2022-11-15T12:22:46.179Z,14.32
2022-11-15T12:25:53.328Z,14.27
2022-11-15T12:44:03.081Z,13.94
2022-11-15T12:47:38.237Z,13.82
2022-11-15T12:51:02.021Z,13.80
2022-11-15T12:54:53.533Z,13.78
2022-11-15T12:58:17.619Z,13.79
2022-11-15T13:01:57.468Z,13.76
2022-11-15T13:05:33.382Z,13.70
2022-11-15T13:08:55.424Z,13.69
2022-11-15T13:11:58.980Z,13.71
2022-11-15T13:15:02.321Z,13.75
2022-11-15T13:18:39.610Z,13.76
2022-11-15T13:22:09.123Z,13.72
2022-11-15T13:25:21.317Z,13.73
2022-11-15T13:28:30.930Z,13.74
2022-11-15T13:31:38.809Z,13.75
2022-11-15T13:34:52.287Z,13.71
2022-11-15T13:37:57.192Z,13.65
2022-11-15T13:41:12.141Z,13.63
2022-11-15T13:44:22.745Z,13.63
2022-11-15T13:47:28.758Z,13.66
2022-11-15T13:50:36.547Z,13.63
2022-11-15T13:53:43.339Z,13.60
2022-11-15T13:56:51.797Z,13.64
2022-11-15T14:00:00.110Z,13.64
2022-11-15T14:11:39.520Z,13.68
2022-11-15T14:20:50.243Z,13.45
2022-11-15T14:24:07.034Z,13.40
2022-11-15T14:27:39.544Z,13.35
2022-11-15T14:48:03.648Z,13.27
2022-11-15T14:51:14.077Z,13.30
2022-11-15T14:54:18.343Z,13.27
2022-11-15T14:57:22.844Z,13.24
2022-11-15T15:00:27.883Z,13.21
2022-11-15T15:03:33.597Z,13.19
2022-11-15T15:06:36.290Z,13.14
2022-11-15T15:09:39.219Z,13.12
2022-11-15T15:12:43.369Z,13.10
2022-11-15T15:15:46.290Z,13.07
2022-11-15T15:18:49.039Z,13.06
2022-11-15T15:21:51.668Z,13.01
2022-11-15T15:24:54.302Z,13.00
2022-11-15T15:27:58.723Z,13.04
2022-11-15T15:31:03.433Z,13.07
2022-11-15T15:34:06.132Z,13.05
2022-11-15T15:37:24.698Z,13.01
2022-11-15T15:40:39.093Z,12.99
2022-11-15T15:43:51.150Z,13.09
2022-11-15T15:47:04.389Z,13.11
2022-11-15T15:50:23.073Z,13.12
2022-11-15T15:53:34.322Z,13.16
2022-11-15T15:56:49.953Z,13.18
2022-11-15T16:00:07.680Z,13.20
2022-11-15T16:03:17.279Z,13.18
2022-11-15T16:06:42.143Z,13.19
2022-11-15T16:10:04.754Z,13.23
2022-11-15T16:13:14.493Z,13.19
2022-11-15T16:16:34.612Z,13.18
2022-11-15T16:19:48.671Z,13.21
2022-11-15T16:23:21.518Z,13.24
2022-11-15T16:26:47.139Z,13.20
2022-11-15T16:30:09.926Z,13.21
2022-11-15T16:33:34.415Z,13.17
2022-11-15T16:36:40.563Z,13.12
2022-11-15T16:40:04.454Z,13.11
2022-11-15T16:43:17.789Z,13.05
2022-11-15T16:46:30.152Z,13.00
2022-11-15T16:49:45.220Z,12.98
2022-11-15T16:52:52.581Z,12.96
2022-11-15T16:56:10.607Z,12.94
2022-11-15T16:59:23.285Z,12.91
2022-11-15T17:02:39.239Z,12.89
2022-11-15T17:06:06.496Z,12.90
2022-11-15T17:09:19.869Z,12.89
2022-11-15T17:12:31.140Z,12.86
2022-11-15T17:15:39.137Z,12.85
2022-11-15T17:18:51.273Z,12.93
2022-11-15T17:22:01.265Z,12.97
2022-11-15T17:25:11.229Z,12.92
2022-11-15T17:28:18.727Z,12.91
2022-11-15T17:32:07.416Z,12.86
2022-11-15T17:35:17.565Z,12.87
2022-11-15T17:38:28.684Z,12.86
2022-11-15T17:41:43.291Z,12.91
2022-11-15T17:44:53.519Z,13.01
2022-11-15T17:48:00.564Z,13.04
2022-11-15T17:51:12.467Z,13.11
2022-11-15T17:54:24.031Z,13.13
2022-11-15T17:57:33.856Z,13.17
2022-11-15T18:01:11.063Z,13.21
2022-11-15T18:04:22.790Z,13.25
2022-11-15T18:07:39.334Z,13.21
2022-11-15T18:10:48.857Z,13.21
2022-11-15T18:14:05.019Z,13.17
2022-11-15T18:17:16.530Z,13.16
2022-11-15T18:20:28.885Z,13.15
2022-11-15T18:23:46.281Z,13.20
2022-11-15T18:26:59.170Z,13.14
2022-11-15T18:30:17.849Z,13.14
2022-11-15T18:33:28.943Z,13.15
2022-11-15T18:36:37.318Z,13.11
2022-11-15T18:39:54.216Z,13.12
2022-11-15T18:43:07.284Z,13.12
2022-11-15T18:46:20.013Z,13.17
2022-11-15T18:49:29.218Z,13.13
2022-11-15T18:52:39.138Z,13.11
2022-11-15T18:55:51.066Z,13.12
2022-11-15T18:59:11.645Z,13.07
2022-11-15T19:02:31.187Z,13.09
2022-11-15T19:05:42.415Z,13.10
2022-11-15T19:08:50.213Z,13.06
2022-11-15T19:12:07.254Z,13.04
2022-11-15T19:15:43.675Z,12.97
2022-11-15T19:18:51.332Z,12.98
2022-11-15T19:22:00.981Z,12.92
2022-11-15T19:25:15.864Z,12.86
2022-11-15T19:28:23.037Z,12.82
2022-11-15T19:31:33.687Z,12.83
2022-11-15T19:34:42.344Z,12.75
2022-11-15T19:37:51.108Z,12.63
2022-11-15T19:41:01.416Z,12.54
2022-11-15T19:44:11.059Z,12.57
2022-11-15T19:47:21.737Z,12.54
2022-11-15T19:50:40.016Z,12.52
2022-11-15T19:54:00.462Z,12.53
2022-11-15T19:57:13.938Z,12.48
2022-11-15T20:00:23.266Z,12.45
2022-11-15T20:03:33.910Z,12.43
2022-11-15T20:06:42.033Z,12.38
2022-11-15T20:09:49.342Z,12.38
2022-11-15T20:13:01.031Z,12.38
2022-11-15T20:16:15.045Z,12.35
2022-11-15T20:19:27.257Z,12.37
2022-11-15T20:22:46.561Z,12.37
2022-11-15T20:25:53.427Z,12.37
2022-11-15T20:29:04.630Z,12.37
2022-11-15T20:32:13.440Z,12.30
2022-11-15T20:35:25.102Z,12.28
2022-11-15T20:38:35.233Z,12.22
2022-11-15T20:41:49.653Z,12.13
2022-11-15T20:44:59.381Z,12.10
2022-11-15T20:48:18.399Z,12.04
2022-11-15T20:51:29.416Z,12.00
2022-11-15T20:54:38.934Z,11.95
2022-11-15T20:57:48.222Z,11.90
2022-11-15T21:01:07.546Z,11.88
2022-11-15T21:04:28.455Z,11.88
2022-11-15T21:07:44.196Z,11.84
2022-11-15T21:11:11.269Z,11.83
2022-11-15T21:14:22.142Z,11.76
2022-11-15T21:17:46.519Z,11.69
2022-11-15T21:20:58.878Z,11.68
2022-11-15T21:24:13.055Z,11.64
2022-11-15T21:27:28.360Z,11.67
2022-11-15T21:30:43.231Z,11.69
2022-11-15T21:33:54.015Z,11.69
2022-11-15T21:37:01.841Z,11.68
2022-11-15T21:40:12.881Z,11.64
2022-11-15T21:43:21.197Z,11.62
2022-11-15T21:46:33.234Z,11.61
2022-11-15T21:49:46.225Z,11.55
2022-11-15T21:52:58.120Z,11.54
2022-11-15T21:56:13.178Z,11.53
2022-11-15T21:59:22.692Z,11.55
2022-11-15T22:02:29.126Z,11.54
2022-11-15T22:05:55.652Z,11.53
2022-11-15T22:09:10.167Z,11.54
2022-11-15T22:12:45.125Z,11.60
2022-11-15T22:16:02.689Z,11.58
2022-11-15T22:19:51.853Z,11.58
2022-11-15T22:23:25.186Z,11.59
2022-11-15T22:27:12.285Z,11.60
2022-11-15T22:30:33.807Z,11.60
2022-11-15T22:34:02.703Z,11.54
2022-11-15T22:37:24.433Z,11.52
2022-11-15T22:41:11.071Z,11.54
2022-11-15T22:44:31.684Z,11.51
2022-11-15T22:48:00.980Z,11.52
2022-11-15T22:51:14.824Z,11.49
2022-11-15T22:54:30.476Z,11.47
2022-11-15T22:57:51.712Z,11.47
2022-11-15T23:01:16.645Z,11.43
2022-11-15T23:04:26.438Z,11.41
2022-11-15T23:07:56.577Z,11.40
2022-11-15T23:22:46.964Z,11.34
2022-11-15T23:26:04.517Z,11.32
2022-11-15T23:29:39.849Z,11.32
2022-11-15T23:33:08.813Z,11.29
2022-11-15T23:36:28.049Z,11.28
2022-11-15T23:44:45.069Z,11.21
2022-11-15T23:48:01.435Z,11.17
2022-11-15T23:51:16.295Z,11.16
